sensor_id;sensor_type;location;lat;lon;timestamp;P1;durP1;ratioP1;P2;durP2;ratioP2
43744;SDS011;29359;53.048;8.732;2022-11-15T00:00:13;22.20;;;16.45;;
43744;SDS011;29359;53.048;8.732;2022-11-15T00:02:14;24.58;;;17.17;;
43744;SDS011;29359;53.048;8.732;2022-11-15T00:04:16;24.60;;;16.17;;
43744;SDS011;29359;53.048;8.732;2022-11-15T00:06:17;26.17;;;16.25;;
43744;SDS011;29359;53.048;8.732;2022-11-15T00:08:19;20.33;;;15.25;;
43744;SDS011;29359;53.048;8.732;2022-11-15T00:10:20;24.08;;;17.67;;
43744;SDS011;29359;53.048;8.732;2022-11-15T00:12:22;24.23;;;16.55;;
43744;SDS011;29359;53.048;8.732;2022-11-15T00:14:23;21.58;;;15.50;;
43744;SDS011;29359;53.048;8.732;2022-11-15T00:16:25;24.42;;;15.07;;
43744;SDS011;29359;53.048;8.732;2022-11-15T00:18:27;21.65;;;15.82;;
43744;SDS011;29359;53.048;8.732;2022-11-15T00:20:29;21.65;;;15.20;;
43744;SDS011;29359;53.048;8.732;2022-11-15T00:22:31;20.67;;;15.60;;
43744;SDS011;29359;53.048;8.732;2022-11-15T00:24:34;22.08;;;14.52;;
43744;SDS011;29359;53.048;8.732;2022-11-15T00:26:35;22.55;;;15.35;;
43744;SDS011;29359;53.048;8.732;2022-11-15T00:28:37;19.42;;;14.70;;
43744;SDS011;29359;53.048;8.732;2022-11-15T00:30:38;19.05;;;14.00;;
43744;SDS011;29359;53.048;8.732;2022-11-15T00:32:41;20.02;;;14.93;;
43744;SDS011;29359;53.048;8.732;2022-11-15T00:34:42;21.73;;;14.35;;
43744;SDS011;29359;53.048;8.732;2022-11-15T00:36:44;23.63;;;14.25;;
43744;SDS011;29359;53.048;8.732;2022-11-15T00:38:45;20.45;;;14.27;;
43744;SDS011;29359;53.048;8.732;2022-11-15T00:40:46;19.60;;;13.93;;
43744;SDS011;29359;53.048;8.732;2022-11-15T00:42:48;17.80;;;13.40;;
43744;SDS011;29359;53.048;8.732;2022-11-15T00:44:49;18.92;;;13.68;;
43744;SDS011;29359;53.048;8.732;2022-11-15T00:46:51;19.38;;;13.60;;
43744;SDS011;29359;53.048;8.732;2022-11-15T00:48:52;22.02;;;14.60;;
43744;SDS011;29359;53.048;8.732;2022-11-15T00:50:54;21.38;;;14.98;;
43744;SDS011;29359;53.048;8.732;2022-11-15T00:52:55;19.88;;;13.00;;
43744;SDS011;29359;53.048;8.732;2022-11-15T00:54:56;16.33;;;12.57;;
43744;SDS011;29359;53.048;8.732;2022-11-15T00:56:58;23.35;;;14.30;;
43744;SDS011;29359;53.048;8.732;2022-11-15T00:58:59;25.20;;;17.00;;
43744;SDS011;29359;53.048;8.732;2022-11-15T01:01:12;21.92;;;14.40;;
43744;SDS011;29359;53.048;8.732;2022-11-15T01:03:15;21.90;;;16.02;;
43744;SDS011;29359;53.048;8.732;2022-11-15T01:05:16;19.10;;;13.38;;
43744;SDS011;29359;53.048;8.732;2022-11-15T01:07:18;21.73;;;14.00;;
43744;SDS011;29359;53.048;8.732;2022-11-15T01:09:19;16.92;;;14.07;;
43744;SDS011;29359;53.048;8.732;2022-11-15T01:11:21;18.67;;;13.18;;
43744;SDS011;29359;53.048;8.732;2022-11-15T01:13:22;17.38;;;12.45;;
43744;SDS011;29359;53.048;8.732;2022-11-15T01:15:24;19.52;;;12.75;;
43744;SDS011;29359;53.048;8.732;2022-11-15T01:17:25;19.63;;;13.27;;
43744;SDS011;29359;53.048;8.732;2022-11-15T01:19:27;16.95;;;12.77;;
43744;SDS011;29359;53.048;8.732;2022-11-15T01:21:28;15.07;;;12.27;;
43744;SDS011;29359;53.048;8.732;2022-11-15T01:23:30;16.77;;;13.13;;
43744;SDS011;29359;53.048;8.732;2022-11-15T01:25:32;19.10;;;13.77;;
43744;SDS011;29359;53.048;8.732;2022-11-15T01:27:33;18.65;;;12.93;;
43744;SDS011;29359;53.048;8.732;2022-11-15T01:29:35;20.33;;;13.07;;
43744;SDS011;29359;53.048;8.732;2022-11-15T01:31:36;18.77;;;13.52;;
43744;SDS011;29359;53.048;8.732;2022-11-15T01:33:39;16.73;;;12.85;;
43744;SDS011;29359;53.048;8.732;2022-11-15T01:35:40;21.13;;;12.57;;
43744;SDS011;29359;53.048;8.732;2022-11-15T01:37:42;17.95;;;12.50;;
43744;SDS011;29359;53.048;8.732;2022-11-15T01:39:43;15.93;;;12.35;;
43744;SDS011;29359;53.048;8.732;2022-11-15T01:41:44;17.40;;;12.07;;
43744;SDS011;29359;53.048;8.732;2022-11-15T01:43:47;22.60;;;12.57;;
43744;SDS011;29359;53.048;8.732;2022-11-15T01:46:04;21.17;;;13.38;;
43744;SDS011;29359;53.048;8.732;2022-11-15T01:50:18;22.25;;;13.07;;
43744;SDS011;29359;53.048;8.732;2022-11-15T01:52:24;18.58;;;12.65;;
43744;SDS011;29359;53.048;8.732;2022-11-15T01:54:27;19.48;;;12.68;;
43744;SDS011;29359;53.048;8.732;2022-11-15T01:56:30;17.05;;;12.90;;
43744;SDS011;29359;53.048;8.732;2022-11-15T01:58:37;17.30;;;12.95;;
43744;SDS011;29359;53.048;8.732;2022-11-15T02:00:41;19.27;;;12.98;;
43744;SDS011;29359;53.048;8.732;2022-11-15T02:02:42;17.15;;;12.50;;
43744;SDS011;29359;53.048;8.732;2022-11-15T02:04:45;19.50;;;14.05;;
43744;SDS011;29359;53.048;8.732;2022-11-15T02:06:48;19.27;;;13.25;;
43744;SDS011;29359;53.048;8.732;2022-11-15T02:08:50;19.45;;;13.95;;
43744;SDS011;29359;53.048;8.732;2022-11-15T02:10:52;18.50;;;13.30;;
43744;SDS011;29359;53.048;8.732;2022-11-15T02:12:53;21.00;;;14.02;;
43744;SDS011;29359;53.048;8.732;2022-11-15T02:14:57;19.60;;;14.23;;
43744;SDS011;29359;53.048;8.732;2022-11-15T02:17:05;19.13;;;14.40;;
43744;SDS011;29359;53.048;8.732;2022-11-15T02:21:41;18.63;;;12.88;;
43744;SDS011;29359;53.048;8.732;2022-11-15T02:30:34;17.13;;;13.02;;
43744;SDS011;29359;53.048;8.732;2022-11-15T02:32:44;19.05;;;13.75;;
43744;SDS011;29359;53.048;8.732;2022-11-15T02:35:08;20.35;;;14.52;;
43744;SDS011;29359;53.048;8.732;2022-11-15T02:39:51;18.77;;;14.00;;
43744;SDS011;29359;53.048;8.732;2022-11-15T02:42:10;18.35;;;13.75;;
43744;SDS011;29359;53.048;8.732;2022-11-15T02:44:36;18.35;;;13.90;;
43744;SDS011;29359;53.048;8.732;2022-11-15T02:46:48;21.88;;;14.05;;
43744;SDS011;29359;53.048;8.732;2022-11-15T02:49:11;22.90;;;14.60;;
43744;SDS011;29359;53.048;8.732;2022-11-15T02:51:15;20.63;;;14.02;;
43744;SDS011;29359;53.048;8.732;2022-11-15T02:53:17;22.45;;;14.95;;
43744;SDS011;29359;53.048;8.732;2022-11-15T02:55:53;17.20;;;13.25;;
43744;SDS011;29359;53.048;8.732;2022-11-15T02:57:52;23.67;;;14.27;;
43744;SDS011;29359;53.048;8.732;2022-11-15T03:00:08;18.05;;;13.48;;
43744;SDS011;29359;53.048;8.732;2022-11-15T03:07:04;21.00;;;13.80;;
43744;SDS011;29359;53.048;8.732;2022-11-15T03:09:23;19.48;;;13.27;;
43744;SDS011;29359;53.048;8.732;2022-11-15T03:11:27;21.80;;;14.70;;
43744;SDS011;29359;53.048;8.732;2022-11-15T03:15:43;17.60;;;14.13;;
43744;SDS011;29359;53.048;8.732;2022-11-15T03:17:54;18.90;;;14.48;;
43744;SDS011;29359;53.048;8.732;2022-11-15T03:20:03;18.73;;;14.23;;
43744;SDS011;29359;53.048;8.732;2022-11-15T03:22:07;20.90;;;13.63;;
43744;SDS011;29359;53.048;8.732;2022-11-15T03:24:12;18.85;;;13.85;;
43744;SDS011;29359;53.048;8.732;2022-11-15T03:26:22;19.02;;;14.23;;
43744;SDS011;29359;53.048;8.732;2022-11-15T03:28:38;18.92;;;13.77;;
43744;SDS011;29359;53.048;8.732;2022-11-15T03:30:43;20.75;;;14.32;;
43744;SDS011;29359;53.048;8.732;2022-11-15T03:32:55;20.27;;;13.30;;
43744;SDS011;29359;53.048;8.732;2022-11-15T03:35:12;21.33;;;15.07;;
43744;SDS011;29359;53.048;8.732;2022-11-15T03:37:27;20.10;;;13.68;;
43744;SDS011;29359;53.048;8.732;2022-11-15T03:39:37;21.65;;;13.70;;
43744;SDS011;29359;53.048;8.732;2022-11-15T03:41:48;24.63;;;13.90;;
43744;SDS011;29359;53.048;8.732;2022-11-15T03:44:06;21.35;;;14.68;;
43744;SDS011;29359;53.048;8.732;2022-11-15T03:46:31;20.75;;;14.85;;
43744;SDS011;29359;53.048;8.732;2022-11-15T03:48:37;18.77;;;14.05;;
43744;SDS011;29359;53.048;8.732;2022-11-15T03:50:44;23.35;;;14.32;;
43744;SDS011;29359;53.048;8.732;2022-11-15T03:52:47;22.35;;;15.20;;
43744;SDS011;29359;53.048;8.732;2022-11-15T03:54:52;20.25;;;14.55;;
43744;SDS011;29359;53.048;8.732;2022-11-15T03:56:55;23.02;;;14.75;;
43744;SDS011;29359;53.048;8.732;2022-11-15T03:58:57;19.73;;;13.75;;
43744;SDS011;29359;53.048;8.732;2022-11-15T04:00:59;23.00;;;14.32;;
43744;SDS011;29359;53.048;8.732;2022-11-15T04:03:00;18.58;;;13.65;;
43744;SDS011;29359;53.048;8.732;2022-11-15T04:05:02;20.40;;;14.57;;
43744;SDS011;29359;53.048;8.732;2022-11-15T04:07:04;18.88;;;14.00;;
43744;SDS011;29359;53.048;8.732;2022-11-15T04:09:05;18.67;;;13.93;;
43744;SDS011;29359;53.048;8.732;2022-11-15T04:11:07;21.30;;;14.05;;
43744;SDS011;29359;53.048;8.732;2022-11-15T04:13:09;17.15;;;13.93;;
43744;SDS011;29359;53.048;8.732;2022-11-15T04:15:12;22.77;;;14.90;;
43744;SDS011;29359;53.048;8.732;2022-11-15T04:17:15;20.50;;;14.20;;
43744;SDS011;29359;53.048;8.732;2022-11-15T04:19:16;23.30;;;14.00;;
43744;SDS011;29359;53.048;8.732;2022-11-15T04:21:36;18.60;;;13.88;;
43744;SDS011;29359;53.048;8.732;2022-11-15T04:24:16;22.42;;;13.68;;
43744;SDS011;29359;53.048;8.732;2022-11-15T04:26:19;16.35;;;12.90;;
43744;SDS011;29359;53.048;8.732;2022-11-15T04:28:22;21.92;;;13.85;;
43744;SDS011;29359;53.048;8.732;2022-11-15T04:30:24;19.80;;;12.88;;
43744;SDS011;29359;53.048;8.732;2022-11-15T04:32:26;19.05;;;14.20;;
43744;SDS011;29359;53.048;8.732;2022-11-15T04:34:27;18.20;;;12.75;;
43744;SDS011;29359;53.048;8.732;2022-11-15T04:36:29;18.38;;;13.95;;
43744;SDS011;29359;53.048;8.732;2022-11-15T04:38:48;19.52;;;13.40;;
43744;SDS011;29359;53.048;8.732;2022-11-15T04:40:50;17.83;;;12.80;;
43744;SDS011;29359;53.048;8.732;2022-11-15T04:42:51;24.92;;;14.45;;
43744;SDS011;29359;53.048;8.732;2022-11-15T04:44:53;20.58;;;13.75;;
43744;SDS011;29359;53.048;8.732;2022-11-15T04:46:54;21.35;;;13.35;;
43744;SDS011;29359;53.048;8.732;2022-11-15T04:48:56;18.10;;;13.52;;
43744;SDS011;29359;53.048;8.732;2022-11-15T04:50:59;17.10;;;12.32;;
43744;SDS011;29359;53.048;8.732;2022-11-15T04:53:01;16.80;;;12.00;;
43744;SDS011;29359;53.048;8.732;2022-11-15T04:55:02;17.08;;;12.48;;
43744;SDS011;29359;53.048;8.732;2022-11-15T04:57:08;17.35;;;12.63;;
43744;SDS011;29359;53.048;8.732;2022-11-15T04:59:10;17.17;;;12.70;;
43744;SDS011;29359;53.048;8.732;2022-11-15T05:01:12;19.00;;;12.95;;
43744;SDS011;29359;53.048;8.732;2022-11-15T05:03:15;18.40;;;12.35;;
43744;SDS011;29359;53.048;8.732;2022-11-15T05:05:36;22.45;;;12.60;;
43744;SDS011;29359;53.048;8.732;2022-11-15T05:07:38;15.27;;;12.40;;
43744;SDS011;29359;53.048;8.732;2022-11-15T05:09:39;18.83;;;12.88;;
43744;SDS011;29359;53.048;8.732;2022-11-15T05:11:40;15.95;;;11.77;;
43744;SDS011;29359;53.048;8.732;2022-11-15T05:13:42;17.45;;;12.52;;
43744;SDS011;29359;53.048;8.732;2022-11-15T05:15:44;15.80;;;11.65;;
43744;SDS011;29359;53.048;8.732;2022-11-15T05:17:45;14.50;;;11.05;;
43744;SDS011;29359;53.048;8.732;2022-11-15T05:19:47;14.95;;;11.65;;
43744;SDS011;29359;53.048;8.732;2022-11-15T05:21:48;15.98;;;11.85;;
43744;SDS011;29359;53.048;8.732;2022-11-15T05:23:50;17.55;;;11.07;;
43744;SDS011;29359;53.048;8.732;2022-11-15T05:25:51;14.48;;;10.93;;
43744;SDS011;29359;53.048;8.732;2022-11-15T05:27:53;14.85;;;11.30;;
43744;SDS011;29359;53.048;8.732;2022-11-15T05:29:54;14.90;;;10.68;;
43744;SDS011;29359;53.048;8.732;2022-11-15T05:31:56;15.13;;;10.98;;
43744;SDS011;29359;53.048;8.732;2022-11-15T05:33:57;13.88;;;10.77;;
43744;SDS011;29359;53.048;8.732;2022-11-15T05:36:04;18.05;;;10.40;;
43744;SDS011;29359;53.048;8.732;2022-11-15T05:38:26;15.55;;;11.05;;
43744;SDS011;29359;53.048;8.732;2022-11-15T05:40:28;15.88;;;11.50;;
43744;SDS011;29359;53.048;8.732;2022-11-15T05:42:30;14.20;;;11.18;;
43744;SDS011;29359;53.048;8.732;2022-11-15T05:44:32;16.05;;;10.63;;
43744;SDS011;29359;53.048;8.732;2022-11-15T05:46:35;15.65;;;10.63;;
43744;SDS011;29359;53.048;8.732;2022-11-15T05:48:40;20.60;;;10.07;;
43744;SDS011;29359;53.048;8.732;2022-11-15T05:50:46;16.73;;;10.52;;
43744;SDS011;29359;53.048;8.732;2022-11-15T05:52:48;16.95;;;10.73;;
43744;SDS011;29359;53.048;8.732;2022-11-15T05:54:51;13.27;;;10.88;;
43744;SDS011;29359;53.048;8.732;2022-11-15T05:56:53;16.58;;;10.80;;
43744;SDS011;29359;53.048;8.732;2022-11-15T05:58:57;15.80;;;10.25;;
43744;SDS011;29359;53.048;8.732;2022-11-15T06:01:00;14.27;;;10.27;;
43744;SDS011;29359;53.048;8.732;2022-11-15T06:03:02;11.98;;;9.85;;
43744;SDS011;29359;53.048;8.732;2022-11-15T06:05:03;18.20;;;12.23;;
43744;SDS011;29359;53.048;8.732;2022-11-15T06:07:05;13.30;;;9.63;;
43744;SDS011;29359;53.048;8.732;2022-11-15T06:09:06;13.30;;;9.80;;
43744;SDS011;29359;53.048;8.732;2022-11-15T06:11:08;13.57;;;10.00;;
43744;SDS011;29359;53.048;8.732;2022-11-15T06:13:09;14.73;;;10.75;;
43744;SDS011;29359;53.048;8.732;2022-11-15T06:15:11;13.63;;;9.77;;
43744;SDS011;29359;53.048;8.732;2022-11-15T06:17:12;15.18;;;10.57;;
43744;SDS011;29359;53.048;8.732;2022-11-15T06:19:14;14.77;;;10.35;;
43744;SDS011;29359;53.048;8.732;2022-11-15T06:21:15;12.38;;;9.93;;
43744;SDS011;29359;53.048;8.732;2022-11-15T06:23:17;11.85;;;9.70;;
43744;SDS011;29359;53.048;8.732;2022-11-15T06:25:18;16.40;;;10.45;;
43744;SDS011;29359;53.048;8.732;2022-11-15T06:27:20;15.35;;;10.23;;
43744;SDS011;29359;53.048;8.732;2022-11-15T06:29:21;12.27;;;10.00;;
43744;SDS011;29359;53.048;8.732;2022-11-15T06:31:23;14.90;;;10.40;;
43744;SDS011;29359;53.048;8.732;2022-11-15T06:33:24;10.68;;;9.35;;
43744;SDS011;29359;53.048;8.732;2022-11-15T06:35:26;17.20;;;10.15;;
43744;SDS011;29359;53.048;8.732;2022-11-15T06:37:27;13.07;;;9.82;;
43744;SDS011;29359;53.048;8.732;2022-11-15T06:39:29;9.60;;;8.68;;
43744;SDS011;29359;53.048;8.732;2022-11-15T06:41:33;14.73;;;9.90;;
43744;SDS011;29359;53.048;8.732;2022-11-15T06:43:36;10.88;;;9.32;;
43744;SDS011;29359;53.048;8.732;2022-11-15T06:45:38;15.05;;;10.30;;
43744;SDS011;29359;53.048;8.732;2022-11-15T06:47:46;13.35;;;9.85;;
43744;SDS011;29359;53.048;8.732;2022-11-15T06:49:48;12.48;;;10.57;;
43744;SDS011;29359;53.048;8.732;2022-11-15T06:51:49;11.43;;;9.77;;
43744;SDS011;29359;53.048;8.732;2022-11-15T06:53:51;16.88;;;9.85;;
43744;SDS011;29359;53.048;8.732;2022-11-15T06:55:52;11.75;;;9.70;;
43744;SDS011;29359;53.048;8.732;2022-11-15T06:57:55;11.65;;;10.00;;
43744;SDS011;29359;53.048;8.732;2022-11-15T06:59:57;12.73;;;9.95;;
43744;SDS011;29359;53.048;8.732;2022-11-15T07:01:58;18.63;;;10.18;;
43744;SDS011;29359;53.048;8.732;2022-11-15T07:04:00;12.82;;;10.13;;
43744;SDS011;29359;53.048;8.732;2022-11-15T07:06:01;13.43;;;10.70;;
43744;SDS011;29359;53.048;8.732;2022-11-15T07:08:08;14.85;;;10.43;;
43744;SDS011;29359;53.048;8.732;2022-11-15T07:10:10;14.73;;;9.93;;
43744;SDS011;29359;53.048;8.732;2022-11-15T07:12:12;15.02;;;10.93;;
43744;SDS011;29359;53.048;8.732;2022-11-15T07:14:13;16.65;;;9.90;;
43744;SDS011;29359;53.048;8.732;2022-11-15T07:16:15;14.43;;;10.65;;
43744;SDS011;29359;53.048;8.732;2022-11-15T07:18:16;13.02;;;9.90;;
43744;SDS011;29359;53.048;8.732;2022-11-15T07:20:18;13.32;;;9.70;;
43744;SDS011;29359;53.048;8.732;2022-11-15T07:22:20;13.98;;;10.20;;
43744;SDS011;29359;53.048;8.732;2022-11-15T07:24:21;16.00;;;9.70;;
43744;SDS011;29359;53.048;8.732;2022-11-15T07:26:23;12.77;;;9.95;;
43744;SDS011;29359;53.048;8.732;2022-11-15T07:28:28;10.75;;;9.57;;
43744;SDS011;29359;53.048;8.732;2022-11-15T07:30:29;14.50;;;9.70;;
43744;SDS011;29359;53.048;8.732;2022-11-15T07:32:31;14.43;;;9.93;;
43744;SDS011;29359;53.048;8.732;2022-11-15T07:34:32;16.52;;;10.55;;
43744;SDS011;29359;53.048;8.732;2022-11-15T07:36:34;16.20;;;10.07;;
43744;SDS011;29359;53.048;8.732;2022-11-15T07:38:35;11.75;;;10.38;;
43744;SDS011;29359;53.048;8.732;2022-11-15T07:40:43;13.32;;;10.63;;
43744;SDS011;29359;53.048;8.732;2022-11-15T07:42:44;14.02;;;10.80;;
43744;SDS011;29359;53.048;8.732;2022-11-15T07:44:54;11.73;;;10.13;;
43744;SDS011;29359;53.048;8.732;2022-11-15T07:46:56;17.25;;;10.75;;
43744;SDS011;29359;53.048;8.732;2022-11-15T07:48:59;14.50;;;10.55;;
43744;SDS011;29359;53.048;8.732;2022-11-15T07:51:00;14.00;;;10.55;;
43744;SDS011;29359;53.048;8.732;2022-11-15T07:53:02;14.18;;;10.95;;
43744;SDS011;29359;53.048;8.732;2022-11-15T07:55:03;20.10;;;10.73;;
43744;SDS011;29359;53.048;8.732;2022-11-15T07:57:05;13.07;;;11.00;;
43744;SDS011;29359;53.048;8.732;2022-11-15T07:59:08;13.57;;;10.20;;
43744;SDS011;29359;53.048;8.732;2022-11-15T08:01:10;14.57;;;10.02;;
43744;SDS011;29359;53.048;8.732;2022-11-15T08:03:12;15.80;;;10.45;;
43744;SDS011;29359;53.048;8.732;2022-11-15T08:05:17;12.68;;;9.48;;
43744;SDS011;29359;53.048;8.732;2022-11-15T08:07:19;14.38;;;10.25;;
43744;SDS011;29359;53.048;8.732;2022-11-15T08:09:20;19.85;;;10.05;;
43744;SDS011;29359;53.048;8.732;2022-11-15T08:11:22;16.90;;;10.85;;
43744;SDS011;29359;53.048;8.732;2022-11-15T08:13:23;14.40;;;10.00;;
43744;SDS011;29359;53.048;8.732;2022-11-15T08:15:25;14.27;;;10.38;;
43744;SDS011;29359;53.048;8.732;2022-11-15T08:17:27;17.65;;;10.73;;
43744;SDS011;29359;53.048;8.732;2022-11-15T08:19:28;14.20;;;10.25;;
43744;SDS011;29359;53.048;8.732;2022-11-15T08:21:30;16.05;;;10.38;;
43744;SDS011;29359;53.048;8.732;2022-11-15T08:23:31;13.75;;;10.65;;
43744;SDS011;29359;53.048;8.732;2022-11-15T08:25:34;12.95;;;10.60;;
43744;SDS011;29359;53.048;8.732;2022-11-15T08:27:36;20.35;;;12.00;;
43744;SDS011;29359;53.048;8.732;2022-11-15T08:29:38;13.02;;;10.38;;
43744;SDS011;29359;53.048;8.732;2022-11-15T08:31:39;17.05;;;10.18;;
43744;SDS011;29359;53.048;8.732;2022-11-15T08:33:41;12.02;;;10.73;;
43744;SDS011;29359;53.048;8.732;2022-11-15T08:35:42;21.67;;;9.55;;
43744;SDS011;29359;53.048;8.732;2022-11-15T08:37:45;17.10;;;11.10;;
43744;SDS011;29359;53.048;8.732;2022-11-15T08:39:46;15.02;;;10.45;;
43744;SDS011;29359;53.048;8.732;2022-11-15T08:41:48;13.90;;;10.63;;
43744;SDS011;29359;53.048;8.732;2022-11-15T08:43:49;14.95;;;10.00;;
43744;SDS011;29359;53.048;8.732;2022-11-15T08:45:51;14.82;;;9.90;;
43744;SDS011;29359;53.048;8.732;2022-11-15T08:47:52;12.30;;;9.88;;
43744;SDS011;29359;53.048;8.732;2022-11-15T08:49:55;17.83;;;10.10;;
43744;SDS011;29359;53.048;8.732;2022-11-15T08:51:56;14.68;;;10.15;;
43744;SDS011;29359;53.048;8.732;2022-11-15T08:53:58;10.57;;;9.48;;
43744;SDS011;29359;53.048;8.732;2022-11-15T08:55:59;13.25;;;10.25;;
43744;SDS011;29359;53.048;8.732;2022-11-15T08:58:01;14.70;;;9.57;;
43744;SDS011;29359;53.048;8.732;2022-11-15T09:00:03;12.07;;;9.82;;
43744;SDS011;29359;53.048;8.732;2022-11-15T09:02:05;15.48;;;10.30;;
43744;SDS011;29359;53.048;8.732;2022-11-15T09:04:06;12.32;;;9.40;;
43744;SDS011;29359;53.048;8.732;2022-11-15T09:06:08;13.65;;;9.68;;
43744;SDS011;29359;53.048;8.732;2022-11-15T09:08:10;14.45;;;9.95;;
43744;SDS011;29359;53.048;8.732;2022-11-15T09:10:33;10.63;;;9.48;;
43744;SDS011;29359;53.048;8.732;2022-11-15T09:12:35;17.45;;;9.35;;
43744;SDS011;29359;53.048;8.732;2022-11-15T09:14:36;11.27;;;8.80;;
43744;SDS011;29359;53.048;8.732;2022-11-15T09:16:38;13.13;;;9.23;;
43744;SDS011;29359;53.048;8.732;2022-11-15T09:18:40;14.85;;;9.07;;
43744;SDS011;29359;53.048;8.732;2022-11-15T09:20:42;17.90;;;9.35;;
43744;SDS011;29359;53.048;8.732;2022-11-15T09:22:43;15.00;;;8.93;;
43744;SDS011;29359;53.048;8.732;2022-11-15T09:24:45;9.43;;;8.40;;
43744;SDS011;29359;53.048;8.732;2022-11-15T09:26:47;10.48;;;8.45;;
43744;SDS011;29359;53.048;8.732;2022-11-15T09:28:51;9.43;;;8.32;;
43744;SDS011;29359;53.048;8.732;2022-11-15T09:30:56;12.27;;;8.18;;
43744;SDS011;29359;53.048;8.732;2022-11-15T09:33:08;9.57;;;8.57;;
43744;SDS011;29359;53.048;8.732;2022-11-15T09:35:11;10.55;;;8.43;;
43744;SDS011;29359;53.048;8.732;2022-11-15T09:37:12;13.13;;;8.30;;
43744;SDS011;29359;53.048;8.732;2022-11-15T09:39:13;9.13;;;8.20;;
43744;SDS011;29359;53.048;8.732;2022-11-15T09:50:41;10.27;;;7.63;;
43744;SDS011;29359;53.048;8.732;2022-11-15T09:52:48;14.48;;;8.25;;
43744;SDS011;29359;53.048;8.732;2022-11-15T09:54:50;8.70;;;7.50;;
43744;SDS011;29359;53.048;8.732;2022-11-15T09:56:56;8.25;;;7.40;;
43744;SDS011;29359;53.048;8.732;2022-11-15T10:01:42;12.10;;;7.40;;
43744;SDS011;29359;53.048;8.732;2022-11-15T10:03:50;9.52;;;7.50;;
43744;SDS011;29359;53.048;8.732;2022-11-15T10:05:53;9.10;;;7.30;;
43744;SDS011;29359;53.048;8.732;2022-11-15T10:08:03;9.25;;;7.20;;
43744;SDS011;29359;53.048;8.732;2022-11-15T10:10:13;9.35;;;7.20;;
43744;SDS011;29359;53.048;8.732;2022-11-15T10:12:21;8.18;;;7.07;;
43744;SDS011;29359;53.048;8.732;2022-11-15T10:14:24;11.23;;;7.53;;
43744;SDS011;29359;53.048;8.732;2022-11-15T10:21:32;8.13;;;7.22;;
43744;SDS011;29359;53.048;8.732;2022-11-15T10:24:06;7.70;;;6.78;;
43744;SDS011;29359;53.048;8.732;2022-11-15T10:26:16;10.90;;;7.07;;
43744;SDS011;29359;53.048;8.732;2022-11-15T10:30:23;13.35;;;7.95;;
43744;SDS011;29359;53.048;8.732;2022-11-15T10:32:31;14.40;;;6.95;;
43744;SDS011;29359;53.048;8.732;2022-11-15T10:34:37;9.02;;;6.85;;
43744;SDS011;29359;53.048;8.732;2022-11-15T10:36:38;9.90;;;6.43;;
43744;SDS011;29359;53.048;8.732;2022-11-15T10:40:52;8.60;;;6.32;;
43744;SDS011;29359;53.048;8.732;2022-11-15T10:45:44;10.05;;;6.25;;
43744;SDS011;29359;53.048;8.732;2022-11-15T10:47:39;10.10;;;6.57;;
43744;SDS011;29359;53.048;8.732;2022-11-15T10:49:41;7.93;;;6.07;;
43744;SDS011;29359;53.048;8.732;2022-11-15T10:52:37;6.75;;;6.05;;
43744;SDS011;29359;53.048;8.732;2022-11-15T10:54:22;6.70;;;5.40;;
43744;SDS011;29359;53.048;8.732;2022-11-15T10:56:43;6.75;;;5.30;;
43744;SDS011;29359;53.048;8.732;2022-11-15T10:58:52;6.40;;;5.50;;
43744;SDS011;29359;53.048;8.732;2022-11-15T11:00:57;6.47;;;5.22;;
43744;SDS011;29359;53.048;8.732;2022-11-15T11:03:34;5.10;;;4.63;;
43744;SDS011;29359;53.048;8.732;2022-11-15T11:05:39;5.68;;;4.78;;
43744;SDS011;29359;53.048;8.732;2022-11-15T11:07:43;7.03;;;4.60;;
43744;SDS011;29359;53.048;8.732;2022-11-15T11:09:58;4.75;;;4.35;;
43744;SDS011;29359;53.048;8.732;2022-11-15T11:12:03;5.10;;;4.60;;
43744;SDS011;29359;53.048;8.732;2022-11-15T11:14:11;5.93;;;5.13;;
43744;SDS011;29359;53.048;8.732;2022-11-15T11:18:21;5.15;;;4.60;;
43744;SDS011;29359;53.048;8.732;2022-11-15T11:20:44;5.45;;;4.60;;
43744;SDS011;29359;53.048;8.732;2022-11-15T11:27:43;4.43;;;3.47;;
43744;SDS011;29359;53.048;8.732;2022-11-15T11:32:36;4.35;;;3.95;;
43744;SDS011;29359;53.048;8.732;2022-11-15T11:34:58;4.18;;;3.72;;
43744;SDS011;29359;53.048;8.732;2022-11-15T11:37:14;3.80;;;2.95;;
43744;SDS011;29359;53.048;8.732;2022-11-15T11:48:47;3.00;;;2.70;;
43744;SDS011;29359;53.048;8.732;2022-11-15T11:50:53;2.95;;;2.30;;
43744;SDS011;29359;53.048;8.732;2022-11-15T11:53:12;4.90;;;2.63;;
43744;SDS011;29359;53.048;8.732;2022-11-15T12:00:21;2.78;;;2.58;;
43744;SDS011;29359;53.048;8.732;2022-11-15T12:02:27;2.75;;;2.55;;
43744;SDS011;29359;53.048;8.732;2022-11-15T12:04:36;2.22;;;2.03;;
43744;SDS011;29359;53.048;8.732;2022-11-15T12:06:42;2.53;;;2.33;;
43744;SDS011;29359;53.048;8.732;2022-11-15T12:11:37;2.60;;;2.15;;
43744;SDS011;29359;53.048;8.732;2022-11-15T12:13:55;2.80;;;2.53;;
43744;SDS011;29359;53.048;8.732;2022-11-15T12:16:03;2.30;;;2.10;;
43744;SDS011;29359;53.048;8.732;2022-11-15T12:18:13;4.57;;;2.25;;
43744;SDS011;29359;53.048;8.732;2022-11-15T12:20:21;2.63;;;2.33;;
43744;SDS011;29359;53.048;8.732;2022-11-15T12:22:40;2.78;;;2.47;;
43744;SDS011;29359;53.048;8.732;2022-11-15T12:26:59;4.47;;;2.05;;
43744;SDS011;29359;53.048;8.732;2022-11-15T12:29:35;3.05;;;2.20;;
43744;SDS011;29359;53.048;8.732;2022-11-15T12:31:41;3.15;;;2.28;;
43744;SDS011;29359;53.048;8.732;2022-11-15T12:33:49;2.00;;;1.77;;
43744;SDS011;29359;53.048;8.732;2022-11-15T12:36:03;2.30;;;1.60;;
43744;SDS011;29359;53.048;8.732;2022-11-15T12:38:09;3.30;;;1.80;;
43744;SDS011;29359;53.048;8.732;2022-11-15T12:50:53;6.25;;;1.30;;
43744;SDS011;29359;53.048;8.732;2022-11-15T12:55:30;2.75;;;1.10;;
43744;SDS011;29359;53.048;8.732;2022-11-15T12:57:36;4.50;;;1.05;;
43744;SDS011;29359;53.048;8.732;2022-11-15T12:59:53;1.40;;;1.13;;
43744;SDS011;29359;53.048;8.732;2022-11-15T13:01:59;3.42;;;1.30;;
43744;SDS011;29359;53.048;8.732;2022-11-15T13:06:37;1.10;;;1.00;;
43744;SDS011;29359;53.048;8.732;2022-11-15T13:08:59;1.45;;;1.02;;
43744;SDS011;29359;53.048;8.732;2022-11-15T13:11:33;1.70;;;1.00;;
43744;SDS011;29359;53.048;8.732;2022-11-15T13:15:58;3.53;;;0.85;;
43744;SDS011;29359;53.048;8.732;2022-11-15T13:18:19;1.15;;;1.05;;
43744;SDS011;29359;53.048;8.732;2022-11-15T13:20:31;1.35;;;0.95;;
43744;SDS011;29359;53.048;8.732;2022-11-15T13:22:50;1.50;;;0.93;;
43744;SDS011;29359;53.048;8.732;2022-11-15T13:25:04;3.70;;;1.05;;
43744;SDS011;29359;53.048;8.732;2022-11-15T13:27:18;2.28;;;1.00;;
43744;SDS011;29359;53.048;8.732;2022-11-15T13:29:21;1.30;;;1.00;;
43744;SDS011;29359;53.048;8.732;2022-11-15T13:33:25;1.40;;;0.80;;
43744;SDS011;29359;53.048;8.732;2022-11-15T13:35:38;1.85;;;1.13;;
43744;SDS011;29359;53.048;8.732;2022-11-15T13:37:41;4.13;;;1.13;;
43744;SDS011;29359;53.048;8.732;2022-11-15T13:39:43;1.17;;;0.90;;
43744;SDS011;29359;53.048;8.732;2022-11-15T13:41:46;3.30;;;0.80;;
43744;SDS011;29359;53.048;8.732;2022-11-15T13:43:50;2.15;;;0.90;;
43744;SDS011;29359;53.048;8.732;2022-11-15T13:48:19;1.27;;;1.17;;
43744;SDS011;29359;53.048;8.732;2022-11-15T13:50:21;1.48;;;1.10;;
43744;SDS011;29359;53.048;8.732;2022-11-15T13:52:27;3.92;;;0.90;;
43744;SDS011;29359;53.048;8.732;2022-11-15T13:54:40;2.70;;;0.90;;